sensor_id;sensor_type;location;lat;lon;timestamp;P1;durP1;ratioP1;P2;durP2;ratioP2
5821;SDS011;2937;48.562;8.022;2022-08-19T00:04:40;43.63;;;31.70;;
5821;SDS011;2937;48.562;8.022;2022-08-19T00:09:34;41.50;;;30.40;;
5821;SDS011;2937;48.562;8.022;2022-08-19T00:14:27;50.43;;;33.97;;
5821;SDS011;2937;48.562;8.022;2022-08-19T00:19:23;49.13;;;34.47;;
5821;SDS011;2937;48.562;8.022;2022-08-19T00:24:16;49.40;;;34.30;;
5821;SDS011;2937;48.562;8.022;2022-08-19T00:29:10;50.70;;;33.73;;
5821;SDS011;2937;48.562;8.022;2022-08-19T00:34:03;46.60;;;32.53;;
5821;SDS011;2937;48.562;8.022;2022-08-19T00:38:56;44.43;;;31.50;;
5821;SDS011;2937;48.562;8.022;2022-08-19T00:44:04;48.67;;;33.13;;
5821;SDS011;2937;48.562;8.022;2022-08-19T00:48:58;49.90;;;34.00;;
5821;SDS011;2937;48.562;8.022;2022-08-19T00:53:52;52.17;;;35.87;;
5821;SDS011;2937;48.562;8.022;2022-08-19T00:58:45;61.63;;;37.43;;
5821;SDS011;2937;48.562;8.022;2022-08-19T01:03:37;59.43;;;36.90;;
5821;SDS011;2937;48.562;8.022;2022-08-19T01:08:49;61.30;;;38.27;;
5821;SDS011;2937;48.562;8.022;2022-08-19T01:13:43;60.40;;;36.97;;
5821;SDS011;2937;48.562;8.022;2022-08-19T01:18:41;61.83;;;38.93;;
5821;SDS011;2937;48.562;8.022;2022-08-19T01:23:35;61.37;;;39.00;;
5821;SDS011;2937;48.562;8.022;2022-08-19T01:28:36;56.70;;;37.60;;
5821;SDS011;2937;48.562;8.022;2022-08-19T01:33:32;56.47;;;39.13;;
5821;SDS011;2937;48.562;8.022;2022-08-19T01:38:26;56.30;;;38.40;;
5821;SDS011;2937;48.562;8.022;2022-08-19T01:43:20;57.77;;;37.47;;
5821;SDS011;2937;48.562;8.022;2022-08-19T01:48:13;59.60;;;39.43;;
5821;SDS011;2937;48.562;8.022;2022-08-19T01:53:07;62.47;;;40.87;;
5821;SDS011;2937;48.562;8.022;2022-08-19T01:58:02;62.17;;;38.57;;
5821;SDS011;2937;48.562;8.022;2022-08-19T02:02:58;62.37;;;38.40;;
5821;SDS011;2937;48.562;8.022;2022-08-19T02:07:52;60.40;;;39.10;;
5821;SDS011;2937;48.562;8.022;2022-08-19T02:12:44;64.97;;;38.80;;
5821;SDS011;2937;48.562;8.022;2022-08-19T02:17:38;64.53;;;38.90;;
5821;SDS011;2937;48.562;8.022;2022-08-19T02:22:32;59.93;;;38.50;;
5821;SDS011;2937;48.562;8.022;2022-08-19T02:27:24;62.87;;;37.87;;
5821;SDS011;2937;48.562;8.022;2022-08-19T02:32:18;68.90;;;38.67;;
5821;SDS011;2937;48.562;8.022;2022-08-19T02:37:11;65.33;;;38.57;;
5821;SDS011;2937;48.562;8.022;2022-08-19T02:42:26;69.27;;;38.97;;
5821;SDS011;2937;48.562;8.022;2022-08-19T02:47:19;70.07;;;40.30;;
5821;SDS011;2937;48.562;8.022;2022-08-19T02:52:11;69.40;;;39.63;;
5821;SDS011;2937;48.562;8.022;2022-08-19T02:57:05;72.57;;;41.87;;
5821;SDS011;2937;48.562;8.022;2022-08-19T03:01:59;71.20;;;41.70;;
5821;SDS011;2937;48.562;8.022;2022-08-19T03:06:51;64.20;;;38.87;;
5821;SDS011;2937;48.562;8.022;2022-08-19T03:11:44;63.93;;;38.10;;
5821;SDS011;2937;48.562;8.022;2022-08-19T03:16:41;65.37;;;36.10;;
5821;SDS011;2937;48.562;8.022;2022-08-19T03:21:36;61.77;;;36.77;;
5821;SDS011;2937;48.562;8.022;2022-08-19T03:26:29;55.60;;;36.20;;
5821;SDS011;2937;48.562;8.022;2022-08-19T03:31:22;63.40;;;37.00;;
5821;SDS011;2937;48.562;8.022;2022-08-19T03:36:36;55.70;;;35.03;;
5821;SDS011;2937;48.562;8.022;2022-08-19T03:41:30;59.37;;;36.00;;
5821;SDS011;2937;48.562;8.022;2022-08-19T03:46:36;67.80;;;37.47;;
5821;SDS011;2937;48.562;8.022;2022-08-19T03:51:36;53.67;;;33.63;;
5821;SDS011;2937;48.562;8.022;2022-08-19T03:56:30;54.00;;;34.17;;
5821;SDS011;2937;48.562;8.022;2022-08-19T04:01:23;58.50;;;34.17;;
5821;SDS011;2937;48.562;8.022;2022-08-19T04:06:26;53.50;;;33.97;;
5821;SDS011;2937;48.562;8.022;2022-08-19T04:11:22;51.20;;;32.47;;
5821;SDS011;2937;48.562;8.022;2022-08-19T04:16:34;57.50;;;33.97;;
5821;SDS011;2937;48.562;8.022;2022-08-19T04:21:27;55.40;;;34.17;;
5821;SDS011;2937;48.562;8.022;2022-08-19T04:26:23;52.43;;;34.03;;
5821;SDS011;2937;48.562;8.022;2022-08-19T04:31:17;54.97;;;34.20;;
5821;SDS011;2937;48.562;8.022;2022-08-19T04:36:15;56.90;;;34.40;;
5821;SDS011;2937;48.562;8.022;2022-08-19T04:41:11;53.27;;;32.47;;
5821;SDS011;2937;48.562;8.022;2022-08-19T04:46:22;51.10;;;32.07;;
5821;SDS011;2937;48.562;8.022;2022-08-19T04:51:30;51.10;;;31.97;;
5821;SDS011;2937;48.562;8.022;2022-08-19T04:56:23;44.43;;;30.87;;
5821;SDS011;2937;48.562;8.022;2022-08-19T05:01:18;45.20;;;29.57;;
5821;SDS011;2937;48.562;8.022;2022-08-19T05:06:13;41.97;;;30.17;;
5821;SDS011;2937;48.562;8.022;2022-08-19T05:11:07;47.87;;;30.90;;
5821;SDS011;2937;48.562;8.022;2022-08-19T05:16:04;44.87;;;30.10;;
5821;SDS011;2937;48.562;8.022;2022-08-19T05:20:57;45.40;;;29.40;;
5821;SDS011;2937;48.562;8.022;2022-08-19T05:26:08;38.57;;;27.93;;
5821;SDS011;2937;48.562;8.022;2022-08-19T05:31:02;45.00;;;29.03;;
5821;SDS011;2937;48.562;8.022;2022-08-19T05:35:54;45.83;;;28.73;;
5821;SDS011;2937;48.562;8.022;2022-08-19T05:40:47;41.83;;;27.47;;
5821;SDS011;2937;48.562;8.022;2022-08-19T05:45:41;39.27;;;27.73;;
5821;SDS011;2937;48.562;8.022;2022-08-19T05:50:35;42.43;;;28.10;;
5821;SDS011;2937;48.562;8.022;2022-08-19T05:55:27;38.93;;;27.70;;
5821;SDS011;2937;48.562;8.022;2022-08-19T06:00:20;38.37;;;26.63;;
5821;SDS011;2937;48.562;8.022;2022-08-19T06:05:16;35.87;;;25.63;;
5821;SDS011;2937;48.562;8.022;2022-08-19T06:10:10;37.93;;;27.30;;
5821;SDS011;2937;48.562;8.022;2022-08-19T06:15:05;37.23;;;26.97;;
5821;SDS011;2937;48.562;8.022;2022-08-19T06:19:58;36.93;;;27.93;;
5821;SDS011;2937;48.562;8.022;2022-08-19T06:24:52;42.27;;;28.50;;
5821;SDS011;2937;48.562;8.022;2022-08-19T06:29:45;42.97;;;28.63;;
5821;SDS011;2937;48.562;8.022;2022-08-19T06:34:38;40.70;;;29.80;;
5821;SDS011;2937;48.562;8.022;2022-08-19T06:39:33;39.47;;;28.60;;
5821;SDS011;2937;48.562;8.022;2022-08-19T06:44:28;40.83;;;28.33;;
5821;SDS011;2937;48.562;8.022;2022-08-19T06:49:33;39.87;;;29.03;;
5821;SDS011;2937;48.562;8.022;2022-08-19T06:54:26;39.77;;;27.43;;
5821;SDS011;2937;48.562;8.022;2022-08-19T06:59:22;39.63;;;27.53;;
5821;SDS011;2937;48.562;8.022;2022-08-19T07:04:21;35.47;;;26.80;;
5821;SDS011;2937;48.562;8.022;2022-08-19T07:09:15;36.77;;;28.07;;
5821;SDS011;2937;48.562;8.022;2022-08-19T07:14:09;38.70;;;26.40;;
5821;SDS011;2937;48.562;8.022;2022-08-19T07:19:10;36.13;;;26.50;;
5821;SDS011;2937;48.562;8.022;2022-08-19T07:24:07;35.90;;;25.60;;
5821;SDS011;2937;48.562;8.022;2022-08-19T07:29:00;35.57;;;27.00;;
5821;SDS011;2937;48.562;8.022;2022-08-19T07:33:54;33.13;;;25.90;;
5821;SDS011;2937;48.562;8.022;2022-08-19T07:38:48;38.43;;;28.33;;
5821;SDS011;2937;48.562;8.022;2022-08-19T07:43:43;38.90;;;28.30;;
5821;SDS011;2937;48.562;8.022;2022-08-19T07:48:36;33.70;;;25.80;;
5821;SDS011;2937;48.562;8.022;2022-08-19T07:53:29;35.37;;;27.27;;
5821;SDS011;2937;48.562;8.022;2022-08-19T07:58:28;37.90;;;27.00;;
5821;SDS011;2937;48.562;8.022;2022-08-19T08:03:22;33.90;;;25.60;;
5821;SDS011;2937;48.562;8.022;2022-08-19T08:08:35;33.87;;;26.10;;
5821;SDS011;2937;48.562;8.022;2022-08-19T08:13:48;35.67;;;26.87;;
5821;SDS011;2937;48.562;8.022;2022-08-19T08:18:53;32.57;;;25.43;;
5821;SDS011;2937;48.562;8.022;2022-08-19T08:23:46;33.23;;;26.00;;
5821;SDS011;2937;48.562;8.022;2022-08-19T08:28:39;39.23;;;27.30;;
5821;SDS011;2937;48.562;8.022;2022-08-19T08:33:38;33.43;;;27.17;;
5821;SDS011;2937;48.562;8.022;2022-08-19T08:38:34;34.30;;;26.67;;
5821;SDS011;2937;48.562;8.022;2022-08-19T08:43:33;35.90;;;27.17;;
5821;SDS011;2937;48.562;8.022;2022-08-19T08:48:29;33.53;;;25.70;;
5821;SDS011;2937;48.562;8.022;2022-08-19T08:53:25;34.53;;;26.27;;
5821;SDS011;2937;48.562;8.022;2022-08-19T08:58:27;35.80;;;27.97;;
5821;SDS011;2937;48.562;8.022;2022-08-19T09:03:22;31.40;;;26.60;;
5821;SDS011;2937;48.562;8.022;2022-08-19T09:08:16;29.90;;;25.37;;
5821;SDS011;2937;48.562;8.022;2022-08-19T09:13:12;28.10;;;24.87;;
5821;SDS011;2937;48.562;8.022;2022-08-19T09:18:10;31.20;;;24.40;;
5821;SDS011;2937;48.562;8.022;2022-08-19T09:23:09;30.87;;;24.57;;
5821;SDS011;2937;48.562;8.022;2022-08-19T09:28:02;28.93;;;23.30;;
5821;SDS011;2937;48.562;8.022;2022-08-19T09:33:05;27.73;;;24.70;;
5821;SDS011;2937;48.562;8.022;2022-08-19T09:37:59;28.30;;;24.20;;
5821;SDS011;2937;48.562;8.022;2022-08-19T09:42:53;26.77;;;23.87;;
5821;SDS011;2937;48.562;8.022;2022-08-19T09:47:46;26.00;;;23.20;;
5821;SDS011;2937;48.562;8.022;2022-08-19T09:52:38;24.43;;;20.27;;
5821;SDS011;2937;48.562;8.022;2022-08-19T09:57:46;22.90;;;20.50;;
5821;SDS011;2937;48.562;8.022;2022-08-19T10:02:39;21.33;;;17.90;;
5821;SDS011;2937;48.562;8.022;2022-08-19T10:07:35;27.53;;;20.20;;
5821;SDS011;2937;48.562;8.022;2022-08-19T10:12:28;19.97;;;17.93;;
5821;SDS011;2937;48.562;8.022;2022-08-19T10:17:22;20.53;;;17.17;;
5821;SDS011;2937;48.562;8.022;2022-08-19T10:22:23;22.87;;;20.40;;
5821;SDS011;2937;48.562;8.022;2022-08-19T10:27:16;22.37;;;18.97;;
5821;SDS011;2937;48.562;8.022;2022-08-19T10:32:09;21.67;;;18.07;;
5821;SDS011;2937;48.562;8.022;2022-08-19T10:37:03;24.23;;;17.33;;
5821;SDS011;2937;48.562;8.022;2022-08-19T10:42:03;20.50;;;17.40;;
5821;SDS011;2937;48.562;8.022;2022-08-19T10:46:56;20.13;;;17.53;;
5821;SDS011;2937;48.562;8.022;2022-08-19T10:51:50;22.10;;;18.47;;
5821;SDS011;2937;48.562;8.022;2022-08-19T10:57:04;20.60;;;18.43;;
5821;SDS011;2937;48.562;8.022;2022-08-19T11:01:58;20.87;;;15.83;;
5821;SDS011;2937;48.562;8.022;2022-08-19T11:06:51;19.53;;;17.27;;
5821;SDS011;2937;48.562;8.022;2022-08-19T11:11:43;25.00;;;18.27;;
5821;SDS011;2937;48.562;8.022;2022-08-19T11:16:38;20.83;;;18.20;;
5821;SDS011;2937;48.562;8.022;2022-08-19T11:21:31;19.47;;;17.40;;
5821;SDS011;2937;48.562;8.022;2022-08-19T11:26:24;20.40;;;17.93;;
5821;SDS011;2937;48.562;8.022;2022-08-19T11:31:18;18.50;;;16.50;;
5821;SDS011;2937;48.562;8.022;2022-08-19T11:36:15;19.47;;;17.43;;
5821;SDS011;2937;48.562;8.022;2022-08-19T11:41:08;17.83;;;16.03;;
5821;SDS011;2937;48.562;8.022;2022-08-19T11:46:03;17.83;;;16.03;;
5821;SDS011;2937;48.562;8.022;2022-08-19T11:50:56;19.70;;;16.90;;
5821;SDS011;2937;48.562;8.022;2022-08-19T11:55:50;19.27;;;17.33;;
5821;SDS011;2937;48.562;8.022;2022-08-19T12:00:47;18.83;;;16.83;;
5821;SDS011;2937;48.562;8.022;2022-08-19T12:05:40;18.07;;;15.90;;
5821;SDS011;2937;48.562;8.022;2022-08-19T12:10:33;19.93;;;17.30;;
5821;SDS011;2937;48.562;8.022;2022-08-19T12:15:27;19.73;;;17.73;;
5821;SDS011;2937;48.562;8.022;2022-08-19T12:20:27;19.60;;;17.60;;
5821;SDS011;2937;48.562;8.022;2022-08-19T12:25:19;20.37;;;18.30;;
5821;SDS011;2937;48.562;8.022;2022-08-19T12:30:14;17.20;;;15.50;;
5821;SDS011;2937;48.562;8.022;2022-08-19T12:35:08;18.07;;;16.17;;
5821;SDS011;2937;48.562;8.022;2022-08-19T12:40:03;17.73;;;16.00;;
5821;SDS011;2937;48.562;8.022;2022-08-19T12:44:55;18.07;;;15.07;;
5821;SDS011;2937;48.562;8.022;2022-08-19T12:49:48;15.67;;;14.07;;
5821;SDS011;2937;48.562;8.022;2022-08-19T12:54:47;11.27;;;10.27;;
5821;SDS011;2937;48.562;8.022;2022-08-19T12:59:45;10.57;;;9.57;;
5821;SDS011;2937;48.562;8.022;2022-08-19T13:04:37;11.80;;;10.80;;
5821;SDS011;2937;48.562;8.022;2022-08-19T13:09:31;12.70;;;11.40;;
5821;SDS011;2937;48.562;8.022;2022-08-19T13:14:25;10.60;;;9.47;;
5821;SDS011;2937;48.562;8.022;2022-08-19T13:19:18;9.67;;;8.77;;
5821;SDS011;2937;48.562;8.022;2022-08-19T13:24:12;10.80;;;9.27;;
5821;SDS011;2937;48.562;8.022;2022-08-19T13:29:04;11.07;;;9.93;;
5821;SDS011;2937;48.562;8.022;2022-08-19T13:34:16;12.07;;;9.23;;
5821;SDS011;2937;48.562;8.022;2022-08-19T13:39:08;14.33;;;12.80;;
5821;SDS011;2937;48.562;8.022;2022-08-19T13:44:01;19.00;;;16.20;;
5821;SDS011;2937;48.562;8.022;2022-08-19T13:48:54;19.00;;;16.70;;
5821;SDS011;2937;48.562;8.022;2022-08-19T13:53:48;18.27;;;16.40;;
5821;SDS011;2937;48.562;8.022;2022-08-19T13:58:42;19.53;;;14.80;;
5821;SDS011;2937;48.562;8.022;2022-08-19T14:03:35;17.00;;;15.40;;
5821;SDS011;2937;48.562;8.022;2022-08-19T14:08:28;20.30;;;16.10;;
5821;SDS011;2937;48.562;8.022;2022-08-19T14:13:24;17.87;;;15.97;;
5821;SDS011;2937;48.562;8.022;2022-08-19T14:18:17;18.10;;;16.40;;
5821;SDS011;2937;48.562;8.022;2022-08-19T14:23:10;18.87;;;16.97;;
5821;SDS011;2937;48.562;8.022;2022-08-19T14:28:03;16.43;;;14.73;;
5821;SDS011;2937;48.562;8.022;2022-08-19T14:32:58;16.10;;;14.40;;
5821;SDS011;2937;48.562;8.022;2022-08-19T14:37:51;16.53;;;14.07;;
5821;SDS011;2937;48.562;8.022;2022-08-19T14:42:46;17.13;;;15.07;;
5821;SDS011;2937;48.562;8.022;2022-08-19T14:47:39;21.40;;;16.00;;
5821;SDS011;2937;48.562;8.022;2022-08-19T14:52:33;17.10;;;15.33;;
5821;SDS011;2937;48.562;8.022;2022-08-19T14:57:26;17.47;;;15.77;;
5821;SDS011;2937;48.562;8.022;2022-08-19T15:02:18;18.13;;;15.53;;
5821;SDS011;2937;48.562;8.022;2022-08-19T15:07:25;16.83;;;14.97;;
5821;SDS011;2937;48.562;8.022;2022-08-19T15:12:21;15.43;;;13.90;;
5821;SDS011;2937;48.562;8.022;2022-08-19T15:17:14;15.90;;;14.20;;
5821;SDS011;2937;48.562;8.022;2022-08-19T15:22:06;16.20;;;13.47;;
5821;SDS011;2937;48.562;8.022;2022-08-19T15:26:59;15.33;;;13.77;;
5821;SDS011;2937;48.562;8.022;2022-08-19T15:31:53;16.23;;;13.63;;
5821;SDS011;2937;48.562;8.022;2022-08-19T15:36:49;18.50;;;15.17;;
5821;SDS011;2937;48.562;8.022;2022-08-19T15:41:41;20.83;;;15.50;;
5821;SDS011;2937;48.562;8.022;2022-08-19T15:46:36;18.03;;;15.20;;
5821;SDS011;2937;48.562;8.022;2022-08-19T15:51:31;15.50;;;13.97;;
5821;SDS011;2937;48.562;8.022;2022-08-19T15:56:25;15.40;;;13.77;;
5821;SDS011;2937;48.562;8.022;2022-08-19T16:01:48;15.37;;;13.77;;
5821;SDS011;2937;48.562;8.022;2022-08-19T16:07:03;15.60;;;12.93;;
5821;SDS011;2937;48.562;8.022;2022-08-19T16:11:59;13.17;;;11.07;;
5821;SDS011;2937;48.562;8.022;2022-08-19T16:16:53;14.70;;;11.30;;
5821;SDS011;2937;48.562;8.022;2022-08-19T16:21:48;12.60;;;11.30;;
5821;SDS011;2937;48.562;8.022;2022-08-19T16:26:42;12.40;;;10.33;;
5821;SDS011;2937;48.562;8.022;2022-08-19T16:31:35;12.00;;;10.40;;
5821;SDS011;2937;48.562;8.022;2022-08-19T16:36:28;14.47;;;9.27;;
5821;SDS011;2937;48.562;8.022;2022-08-19T16:41:21;10.90;;;8.47;;
5821;SDS011;2937;48.562;8.022;2022-08-19T16:46:15;10.10;;;7.87;;
5821;SDS011;2937;48.562;8.022;2022-08-19T16:51:09;8.40;;;7.50;;
5821;SDS011;2937;48.562;8.022;2022-08-19T16:56:02;10.50;;;7.63;;
5821;SDS011;2937;48.562;8.022;2022-08-19T17:00:55;8.20;;;7.30;;
5821;SDS011;2937;48.562;8.022;2022-08-19T17:05:56;7.47;;;6.70;;
5821;SDS011;2937;48.562;8.022;2022-08-19T17:10:53;7.50;;;6.50;;
5821;SDS011;2937;48.562;8.022;2022-08-19T17:16:06;6.73;;;6.03;;
5821;SDS011;2937;48.562;8.022;2022-08-19T17:21:00;6.40;;;5.70;;
5821;SDS011;2937;48.562;8.022;2022-08-19T17:25:53;7.90;;;6.20;;
5821;SDS011;2937;48.562;8.022;2022-08-19T17:30:45;6.70;;;6.00;;
5821;SDS011;2937;48.562;8.022;2022-08-19T17:35:39;7.90;;;6.50;;
5821;SDS011;2937;48.562;8.022;2022-08-19T17:40:35;6.97;;;5.30;;
5821;SDS011;2937;48.562;8.022;2022-08-19T17:45:28;6.57;;;5.40;;
5821;SDS011;2937;48.562;8.022;2022-08-19T17:50:21;7.47;;;4.90;;
5821;SDS011;2937;48.562;8.022;2022-08-19T17:55:13;6.90;;;4.70;;
5821;SDS011;2937;48.562;8.022;2022-08-19T18:00:08;5.07;;;4.20;;
5821;SDS011;2937;48.562;8.022;2022-08-19T18:05:02;5.90;;;4.80;;
5821;SDS011;2937;48.562;8.022;2022-08-19T18:09:55;8.67;;;7.87;;
5821;SDS011;2937;48.562;8.022;2022-08-19T18:14:52;12.80;;;11.50;;
5821;SDS011;2937;48.562;8.022;2022-08-19T18:19:46;16.77;;;14.10;;
5821;SDS011;2937;48.562;8.022;2022-08-19T18:24:39;16.33;;;14.07;;
5821;SDS011;2937;48.562;8.022;2022-08-19T18:29:32;16.60;;;14.47;;
5821;SDS011;2937;48.562;8.022;2022-08-19T18:34:27;17.60;;;14.60;;
5821;SDS011;2937;48.562;8.022;2022-08-19T18:39:21;17.80;;;15.00;;
5821;SDS011;2937;48.562;8.022;2022-08-19T18:44:35;18.70;;;15.80;;
5821;SDS011;2937;48.562;8.022;2022-08-19T18:49:50;19.00;;;16.60;;
5821;SDS011;2937;48.562;8.022;2022-08-19T18:54:44;20.37;;;17.63;;
5821;SDS011;2937;48.562;8.022;2022-08-19T18:59:37;22.83;;;17.83;;
5821;SDS011;2937;48.562;8.022;2022-08-19T19:04:35;21.83;;;17.90;;
5821;SDS011;2937;48.562;8.022;2022-08-19T19:09:28;23.77;;;18.20;;
5821;SDS011;2937;48.562;8.022;2022-08-19T19:14:22;23.87;;;18.17;;
5821;SDS011;2937;48.562;8.022;2022-08-19T19:19:36;24.57;;;19.80;;
5821;SDS011;2937;48.562;8.022;2022-08-19T19:24:32;21.87;;;17.57;;
5821;SDS011;2937;48.562;8.022;2022-08-19T19:29:28;20.80;;;17.40;;
5821;SDS011;2937;48.562;8.022;2022-08-19T19:34:21;23.43;;;17.00;;
5821;SDS011;2937;48.562;8.022;2022-08-19T19:39:20;22.90;;;17.70;;
5821;SDS011;2937;48.562;8.022;2022-08-19T19:44:34;21.87;;;17.23;;
5821;SDS011;2937;48.562;8.022;2022-08-19T19:49:29;21.20;;;18.60;;
5821;SDS011;2937;48.562;8.022;2022-08-19T19:54:22;22.10;;;18.17;;
5821;SDS011;2937;48.562;8.022;2022-08-19T19:59:15;20.50;;;16.20;;
5821;SDS011;2937;48.562;8.022;2022-08-19T20:04:09;22.03;;;17.57;;
5821;SDS011;2937;48.562;8.022;2022-08-19T20:09:02;21.53;;;16.87;;
5821;SDS011;2937;48.562;8.022;2022-08-19T20:14:02;22.50;;;18.17;;
5821;SDS011;2937;48.562;8.022;2022-08-19T20:18:55;24.30;;;18.27;;
5821;SDS011;2937;48.562;8.022;2022-08-19T20:23:49;21.90;;;18.23;;
5821;SDS011;2937;48.562;8.022;2022-08-19T20:29:00;22.70;;;19.13;;
5821;SDS011;2937;48.562;8.022;2022-08-19T20:34:13;23.40;;;17.67;;
5821;SDS011;2937;48.562;8.022;2022-08-19T20:39:07;23.60;;;18.53;;
5821;SDS011;2937;48.562;8.022;2022-08-19T20:43:59;24.00;;;17.97;;
5821;SDS011;2937;48.562;8.022;2022-08-19T20:48:54;21.43;;;17.80;;
5821;SDS011;2937;48.562;8.022;2022-08-19T20:53:49;22.93;;;18.40;;
5821;SDS011;2937;48.562;8.022;2022-08-19T20:58:43;21.97;;;16.57;;
5821;SDS011;2937;48.562;8.022;2022-08-19T21:03:44;20.13;;;16.23;;
5821;SDS011;2937;48.562;8.022;2022-08-19T21:08:37;23.20;;;17.27;;
5821;SDS011;2937;48.562;8.022;2022-08-19T21:13:30;22.03;;;16.10;;
5821;SDS011;2937;48.562;8.022;2022-08-19T21:18:24;22.53;;;16.17;;
5821;SDS011;2937;48.562;8.022;2022-08-19T21:23:18;19.57;;;15.33;;
5821;SDS011;2937;48.562;8.022;2022-08-19T21:28:11;18.30;;;15.13;;
5821;SDS011;2937;48.562;8.022;2022-08-19T21:33:20;18.20;;;14.90;;
5821;SDS011;2937;48.562;8.022;2022-08-19T21:38:14;20.63;;;14.53;;
5821;SDS011;2937;48.562;8.022;2022-08-19T21:43:07;17.53;;;13.37;;
5821;SDS011;2937;48.562;8.022;2022-08-19T21:47:59;15.90;;;12.20;;
5821;SDS011;2937;48.562;8.022;2022-08-19T21:52:52;18.67;;;14.07;;
5821;SDS011;2937;48.562;8.022;2022-08-19T21:57:46;19.27;;;14.40;;
5821;SDS011;2937;48.562;8.022;2022-08-19T22:02:39;16.63;;;13.93;;
5821;SDS011;2937;48.562;8.022;2022-08-19T22:07:32;14.30;;;11.77;;
5821;SDS011;2937;48.562;8.022;2022-08-19T22:12:25;14.20;;;11.60;;
5821;SDS011;2937;48.562;8.022;2022-08-19T22:17:19;14.27;;;10.23;;
5821;SDS011;2937;48.562;8.022;2022-08-19T22:22:13;14.50;;;11.40;;
5821;SDS011;2937;48.562;8.022;2022-08-19T22:27:10;14.40;;;11.53;;
5821;SDS011;2937;48.562;8.022;2022-08-19T22:32:03;15.70;;;12.30;;
5821;SDS011;2937;48.562;8.022;2022-08-19T22:37:17;14.77;;;11.57;;
5821;SDS011;2937;48.562;8.022;2022-08-19T22:42:09;14.97;;;12.07;;
5821;SDS011;2937;48.562;8.022;2022-08-19T22:47:03;16.50;;;12.20;;
5821;SDS011;2937;48.562;8.022;2022-08-19T22:51:55;18.57;;;12.57;;
5821;SDS011;2937;48.562;8.022;2022-08-19T22:57:09;16.37;;;13.47;;
5821;SDS011;2937;48.562;8.022;2022-08-19T23:02:02;16.13;;;13.00;;
5821;SDS011;2937;48.562;8.022;2022-08-19T23:06:55;17.43;;;13.60;;
5821;SDS011;2937;48.562;8.022;2022-08-19T23:11:47;19.17;;;13.70;;
5821;SDS011;2937;48.562;8.022;2022-08-19T23:16:41;17.80;;;12.10;;
5821;SDS011;2937;48.562;8.022;2022-08-19T23:21:41;16.00;;;13.03;;
5821;SDS011;2937;48.562;8.022;2022-08-19T23:26:34;15.10;;;12.03;;
5821;SDS011;2937;48.562;8.022;2022-08-19T23:31:26;12.13;;;10.57;;
5821;SDS011;2937;48.562;8.022;2022-08-19T23:36:21;12.70;;;9.50;;
5821;SDS011;2937;48.562;8.022;2022-08-19T23:41:14;14.30;;;8.50;;
5821;SDS011;2937;48.562;8.022;2022-08-19T23:46:07;11.27;;;8.77;;
5821;SDS011;2937;48.562;8.022;2022-08-19T23:51:02;11.40;;;7.77;;
5821;SDS011;2937;48.562;8.022;2022-08-19T23:55:56;9.77;;;7.13;;
